Time;durP1;ratioP1;P1;durP2;ratioP2;P2;SDS_P1;SDS_P2;PMS_P1;PMS_P2;Temp;Humidity;BMP_temperature;BMP_pressure;BME280_temperature;BME280_humidity;BME280_pressure;Samples;Min_cycle;Max_cycle;Signal;HPM_P1;HPM_P2
2022/07/21 00:00:43;;;;;;;6.15;1.38;;;;;;;;;;5032453;28;20112;-70
2022/07/21 00:03:08;;;;;;;2.92;1.20;;;;;;;;;;5032821;28;20022;-71
2022/07/21 00:05:34;;;;;;;3.40;1.60;;;;;;;;;;5032484;28;20434;-70
2022/07/21 00:07:59;;;;;;;6.43;1.60;;;;;;;;;;5032309;28;20064;-70
2022/07/21 00:10:25;;;;;;;3.42;1.63;;;;;;;;;;5032421;28;20083;-70
2022/07/21 00:12:52;;;;;;;4.35;1.70;;;;;;;;;;5032489;28;20022;-70
2022/07/21 00:15:18;;;;;;;7.03;2.13;;;;;;;;;;5033263;28;20033;-70
2022/07/21 00:17:43;;;;;;;4.90;2.17;;;;;;;;;;5030590;28;20080;-70
2022/07/21 00:20:09;;;;;;;5.38;1.90;;;;;;;;;;5035957;28;20412;-70
2022/07/21 00:22:35;;;;;;;4.65;1.90;;;;;;;;;;5036366;28;20072;-70
2022/07/21 00:25:00;;;;;;;3.17;1.73;;;;;;;;;;5036069;28;20554;-70
2022/07/21 00:27:26;;;;;;;6.40;1.98;;;;;;;;;;5036470;28;20064;-70
2022/07/21 00:29:51;;;;;;;3.50;1.75;;;;;;;;;;5035894;28;20037;-70
2022/07/21 00:32:16;;;;;;;4.30;1.80;;;;;;;;;;5036050;28;20029;-70
2022/07/21 00:34:43;;;;;;;3.35;1.70;;;;;;;;;;5035592;28;20032;-70
2022/07/21 00:37:09;;;;;;;5.43;2.05;;;;;;;;;;5036095;28;20030;-70
2022/07/21 00:39:34;;;;;;;4.05;1.60;;;;;;;;;;5036047;28;20057;-70
2022/07/21 00:41:59;;;;;;;5.55;2.00;;;;;;;;;;5036298;28;20033;-70
2022/07/21 00:44:26;;;;;;;4.53;1.63;;;;;;;;;;5035812;28;20484;-69
2022/07/21 00:46:51;;;;;;;3.92;1.83;;;;;;;;;;5035429;28;20033;-70
2022/07/21 00:49:17;;;;;;;6.97;2.00;;;;;;;;;;5035969;28;20476;-70
2022/07/21 00:51:42;;;;;;;5.03;2.42;;;;;;;;;;5035869;28;20030;-70
2022/07/21 00:54:08;;;;;;;6.22;1.90;;;;;;;;;;5035588;28;20025;-70
2022/07/21 00:56:33;;;;;;;7.43;2.17;;;;;;;;;;5036036;28;20033;-70
2022/07/21 00:58:58;;;;;;;5.72;2.20;;;;;;;;;;5035452;28;20022;-70
2022/07/21 01:01:24;;;;;;;5.70;2.33;;;;;;;;;;5036168;28;20036;-70
2022/07/21 01:03:49;;;;;;;4.03;2.40;;;;;;;;;;5035265;28;20028;-70
2022/07/21 01:06:14;;;;;;;5.00;2.22;;;;;;;;;;5034684;28;20041;-70
2022/07/21 01:08:40;;;;;;;7.13;2.50;;;;;;;;;;5035117;28;20448;-70
2022/07/21 01:11:05;;;;;;;6.57;2.30;;;;;;;;;;5035645;28;20014;-70
2022/07/21 01:13:31;;;;;;;0.77;0.68;;;;;;;;;;5035117;28;20026;-69
2022/07/21 01:15:56;;;;;;;2.13;1.20;;;;;;;;;;5035304;28;20034;-69
2022/07/21 01:18:21;;;;;;;3.58;0.88;;;;;;;;;;5035132;28;20030;-70
2022/07/21 01:20:50;;;;;;;1.13;0.75;;;;;;;;;;5035246;28;20022;-70
2022/07/21 01:23:16;;;;;;;1.25;0.85;;;;;;;;;;5034913;28;20473;-70
2022/07/21 01:25:46;;;;;;;1.88;1.10;;;;;;;;;;5034889;28;20028;-70
2022/07/21 01:28:11;;;;;;;0.95;0.80;;;;;;;;;;5035153;28;20029;-70
2022/07/21 01:30:36;;;;;;;1.23;0.80;;;;;;;;;;5034503;28;20432;-70
2022/07/21 01:33:02;;;;;;;3.13;1.05;;;;;;;;;;5035649;28;20052;-70
2022/07/21 01:35:27;;;;;;;5.60;1.30;;;;;;;;;;5035058;28;20021;-70
2022/07/21 01:37:54;;;;;;;1.80;0.88;;;;;;;;;;5034456;28;20369;-70
2022/07/21 01:43:03;;;;;;;0.80;0.60;;;;;;;;;;5034440;28;20037;-69
2022/07/21 01:45:29;;;;;;;8.07;1.20;;;;;;;;;;5034530;28;20116;-69
2022/07/21 01:47:55;;;;;;;4.28;1.05;;;;;;;;;;5035016;28;20108;-70
2022/07/21 01:50:22;;;;;;;5.60;1.45;;;;;;;;;;5034774;28;20033;-70
2022/07/21 01:52:48;;;;;;;1.25;0.63;;;;;;;;;;5034652;28;20109;-69
2022/07/21 01:55:13;;;;;;;1.13;0.90;;;;;;;;;;5034482;28;20101;-70
2022/07/21 01:57:39;;;;;;;3.55;1.23;;;;;;;;;;5034874;28;20113;-70
2022/07/21 02:00:04;;;;;;;1.95;0.82;;;;;;;;;;5034049;28;20033;-70
2022/07/21 02:02:30;;;;;;;0.98;0.77;;;;;;;;;;5034791;28;20083;-70
2022/07/21 02:04:55;;;;;;;1.30;0.80;;;;;;;;;;5034306;28;20084;-69
2022/07/21 02:07:20;;;;;;;7.10;0.77;;;;;;;;;;5034464;28;20512;-69
2022/07/21 02:09:45;;;;;;;0.73;0.52;;;;;;;;;;5034611;28;20066;-70
2022/07/21 02:12:11;;;;;;;6.40;1.05;;;;;;;;;;5024877;28;20040;-70
2022/07/21 02:14:36;;;;;;;3.25;1.20;;;;;;;;;;5028490;28;20045;-70
2022/07/21 02:17:01;;;;;;;1.50;1.15;;;;;;;;;;5033851;28;20025;-69
2022/07/21 02:19:27;;;;;;;1.85;0.95;;;;;;;;;;5034149;28;20100;-69
2022/07/21 02:21:52;;;;;;;2.83;0.80;;;;;;;;;;5034068;28;20028;-70
2022/07/21 02:24:17;;;;;;;1.60;1.05;;;;;;;;;;5034022;28;20373;-70
2022/07/21 02:26:43;;;;;;;1.42;1.08;;;;;;;;;;5033740;28;20018;-70
2022/07/21 02:29:08;;;;;;;0.90;0.80;;;;;;;;;;5034154;28;20041;-69
2022/07/21 02:31:33;;;;;;;3.13;1.08;;;;;;;;;;5031536;28;20028;-70
2022/07/21 02:33:59;;;;;;;2.97;1.40;;;;;;;;;;5033952;28;20461;-70
2022/07/21 02:36:24;;;;;;;2.20;1.33;;;;;;;;;;5034309;28;20064;-70
2022/07/21 02:38:50;;;;;;;1.50;0.73;;;;;;;;;;5032701;28;20029;-69
2022/07/21 02:41:15;;;;;;;1.60;0.80;;;;;;;;;;5031948;28;20049;-70
2022/07/21 02:43:41;;;;;;;1.55;0.90;;;;;;;;;;5033443;28;20370;-70
2022/07/21 02:46:06;;;;;;;5.18;1.60;;;;;;;;;;5033673;28;20045;-70
2022/07/21 02:48:31;;;;;;;4.28;1.52;;;;;;;;;;5033023;28;20029;-70
2022/07/21 02:50:57;;;;;;;5.03;1.73;;;;;;;;;;5033761;28;20053;-69
2022/07/21 02:53:23;;;;;;;4.30;1.75;;;;;;;;;;5033615;28;20104;-69
2022/07/21 02:55:49;;;;;;;9.40;1.73;;;;;;;;;;5033633;28;20045;-70
2022/07/21 02:58:16;;;;;;;2.92;1.70;;;;;;;;;;5033654;28;20029;-69
2022/07/21 03:00:42;;;;;;;0.98;0.77;;;;;;;;;;5033144;28;20100;-69
2022/07/21 03:03:08;;;;;;;2.42;0.80;;;;;;;;;;5033811;28;20096;-69
2022/07/21 03:05:34;;;;;;;0.52;0.50;;;;;;;;;;5039151;28;20169;-70
2022/07/21 03:07:59;;;;;;;0.55;0.47;;;;;;;;;;5029986;28;20033;-70
2022/07/21 03:10:24;;;;;;;0.50;0.50;;;;;;;;;;5033123;28;20021;-70
2022/07/21 03:12:50;;;;;;;0.68;0.38;;;;;;;;;;5033565;28;20037;-69
2022/07/21 03:15:15;;;;;;;6.57;1.95;;;;;;;;;;5033037;28;20030;-70
2022/07/21 03:17:40;;;;;;;2.60;1.08;;;;;;;;;;5032996;28;20021;-70
2022/07/21 03:20:06;;;;;;;0.55;0.50;;;;;;;;;;5033038;28;20060;-70
2022/07/21 03:22:31;;;;;;;0.60;0.47;;;;;;;;;;5033297;28;20381;-69
2022/07/21 03:24:56;;;;;;;0.35;0.35;;;;;;;;;;5032847;28;20061;-70
2022/07/21 03:27:22;;;;;;;1.83;1.08;;;;;;;;;;5033294;28;20041;-69
2022/07/21 03:29:47;;;;;;;9.18;1.23;;;;;;;;;;5032567;28;20083;-70
2022/07/21 03:32:12;;;;;;;7.47;1.50;;;;;;;;;;5033211;28;20033;-70
2022/07/21 03:34:37;;;;;;;2.97;0.73;;;;;;;;;;5032891;28;20034;-70
2022/07/21 03:37:03;;;;;;;1.63;0.90;;;;;;;;;;5032999;28;20030;-69
2022/07/21 03:39:28;;;;;;;4.38;0.77;;;;;;;;;;5032897;28;20045;-70
2022/07/21 03:41:53;;;;;;;1.27;0.70;;;;;;;;;;5033451;28;20033;-69
2022/07/21 03:44:19;;;;;;;1.55;0.90;;;;;;;;;;5032784;28;20087;-69
2022/07/21 03:46:44;;;;;;;1.08;0.75;;;;;;;;;;5032578;28;20432;-70
2022/07/21 03:49:09;;;;;;;1.55;0.77;;;;;;;;;;5033528;28;20033;-69
2022/07/21 03:51:35;;;;;;;0.40;0.40;;;;;;;;;;5037030;28;20038;-69
2022/07/21 03:54:01;;;;;;;0.50;0.47;;;;;;;;;;5036920;28;20017;-70
2022/07/21 03:56:27;;;;;;;2.00;1.10;;;;;;;;;;5036945;28;20087;-69
2022/07/21 03:58:52;;;;;;;1.52;0.80;;;;;;;;;;5036814;28;20030;-70
2022/07/21 04:01:17;;;;;;;3.45;0.95;;;;;;;;;;5036626;28;20405;-69
2022/07/21 04:03:43;;;;;;;1.10;0.77;;;;;;;;;;5036767;28;20033;-70
2022/07/21 04:06:10;;;;;;;0.90;0.70;;;;;;;;;;5037686;28;20117;-69
2022/07/21 04:08:36;;;;;;;0.55;0.43;;;;;;;;;;5025855;28;20026;-69
2022/07/21 04:11:01;;;;;;;1.23;0.85;;;;;;;;;;5036657;28;20034;-69
2022/07/21 04:13:27;;;;;;;1.08;0.68;;;;;;;;;;5037055;28;20080;-70
2022/07/21 04:15:52;;;;;;;5.13;0.85;;;;;;;;;;5036467;28;20104;-69
2022/07/21 04:18:17;;;;;;;6.82;0.70;;;;;;;;;;5036283;28;20029;-69
2022/07/21 04:20:43;;;;;;;0.50;0.43;;;;;;;;;;5036442;28;20026;-70
2022/07/21 04:23:08;;;;;;;1999.90;999.90;;;;;;;;;;5036543;28;20048;-69
2022/07/21 04:25:35;;;;;;;1999.90;999.90;;;;;;;;;;5035977;28;20125;-70
2022/07/21 04:28:00;;;;;;;1999.90;999.90;;;;;;;;;;5036261;28;20026;-69
2022/07/21 04:30:25;;;;;;;1999.90;999.90;;;;;;;;;;5036177;28;20029;-69
2022/07/21 04:32:52;;;;;;;1999.90;999.90;;;;;;;;;;5036432;28;20025;-70
2022/07/21 04:35:17;;;;;;;1999.90;999.90;;;;;;;;;;5036310;28;20100;-70
2022/07/21 04:37:43;;;;;;;1999.90;999.90;;;;;;;;;;5036297;28;20096;-70
2022/07/21 04:40:09;;;;;;;1999.90;999.90;;;;;;;;;;5036240;28;20374;-69
2022/07/21 04:42:34;;;;;;;1999.90;999.90;;;;;;;;;;5036256;28;20032;-70
2022/07/21 04:45:00;;;;;;;1999.90;999.90;;;;;;;;;;5035787;28;20030;-69
2022/07/21 04:47:25;;;;;;;1999.90;999.90;;;;;;;;;;5035562;28;20021;-70
2022/07/21 04:49:51;;;;;;;1999.90;999.90;;;;;;;;;;5035994;28;20063;-69
2022/07/21 04:52:16;;;;;;;1999.90;999.90;;;;;;;;;;5035500;28;20029;-69
2022/07/21 04:54:41;;;;;;;1999.90;999.90;;;;;;;;;;5035460;28;20029;-71
2022/07/21 04:57:07;;;;;;;1999.90;999.90;;;;;;;;;;5036288;28;20021;-69
2022/07/21 04:59:32;;;;;;;1999.90;999.90;;;;;;;;;;5035869;28;20437;-69
2022/07/21 05:01:58;;;;;;;1999.90;999.90;;;;;;;;;;5034414;28;20456;-69
2022/07/21 05:04:24;;;;;;;1999.90;999.90;;;;;;;;;;5035552;28;20104;-69
2022/07/21 05:06:49;;;;;;;1999.90;999.90;;;;;;;;;;5035938;28;20045;-69
2022/07/21 05:09:14;;;;;;;1999.90;999.90;;;;;;;;;;5035461;28;20056;-69
2022/07/21 05:11:40;;;;;;;1999.90;999.90;;;;;;;;;;5035680;28;20037;-69
2022/07/21 05:14:05;;;;;;;1999.90;999.90;;;;;;;;;;5035507;28;20374;-69
2022/07/21 05:16:31;;;;;;;1999.90;999.90;;;;;;;;;;5035166;28;20064;-69
2022/07/21 05:18:56;;;;;;;1999.90;999.90;;;;;;;;;;5035039;28;20030;-70
2022/07/21 05:21:21;;;;;;;1999.90;999.90;;;;;;;;;;5035341;28;20426;-70
2022/07/21 05:23:46;;;;;;;1999.90;999.90;;;;;;;;;;5035327;28;20025;-69
2022/07/21 05:26:12;;;;;;;1999.90;999.90;;;;;;;;;;5035179;28;20362;-69
2022/07/21 05:28:38;;;;;;;1999.90;999.90;;;;;;;;;;5034852;28;20022;-69
2022/07/21 05:31:03;;;;;;;1999.90;999.90;;;;;;;;;;5029344;28;20036;-69
2022/07/21 05:33:28;;;;;;;1999.90;999.90;;;;;;;;;;5035166;28;20038;-69
2022/07/21 05:35:54;;;;;;;1999.90;999.90;;;;;;;;;;5035131;28;20527;-70
2022/07/21 05:38:19;;;;;;;1999.90;999.90;;;;;;;;;;5035069;28;20283;-69
2022/07/21 05:40:44;;;;;;;1999.90;999.90;;;;;;;;;;5035114;28;20068;-70
2022/07/21 05:43:09;;;;;;;1999.90;999.90;;;;;;;;;;5035121;28;20041;-69
2022/07/21 05:45:35;;;;;;;1999.90;999.90;;;;;;;;;;5034510;28;20061;-69
2022/07/21 05:48:00;;;;;;;1999.90;999.90;;;;;;;;;;5034335;28;20045;-70
2022/07/21 05:50:26;;;;;;;1999.90;999.90;;;;;;;;;;5050107;28;20080;-70
2022/07/21 05:52:51;;;;;;;1999.90;999.90;;;;;;;;;;5034780;28;20488;-70
2022/07/21 05:55:16;;;;;;;1999.90;999.90;;;;;;;;;;5034791;28;20049;-70
2022/07/21 05:57:41;;;;;;;1999.90;999.90;;;;;;;;;;5035031;28;20088;-70
2022/07/21 06:00:07;;;;;;;1999.90;999.90;;;;;;;;;;5034286;28;20036;-69
2022/07/21 06:02:32;;;;;;;105.53;45.92;;;;;;;;;;5022003;28;20438;-70
2022/07/21 06:04:58;;;;;;;1507.18;756.55;;;;;;;;;;5034474;28;20492;-70
2022/07/21 06:07:24;;;;;;;4.55;4.25;;;;;;;;;;5034751;28;20037;-69
2022/07/21 06:09:49;;;;;;;1999.90;999.90;;;;;;;;;;5033950;28;20035;-69
2022/07/21 06:12:14;;;;;;;1999.90;999.90;;;;;;;;;;5034721;28;20025;-70
2022/07/21 06:14:40;;;;;;;1999.90;999.90;;;;;;;;;;5034248;28;20045;-70
2022/07/21 06:17:05;;;;;;;1999.90;999.90;;;;;;;;;;5034003;28;20040;-69
2022/07/21 06:19:31;;;;;;;1999.90;999.90;;;;;;;;;;5034172;28;20033;-69
2022/07/21 06:21:56;;;;;;;1999.90;999.90;;;;;;;;;;5034234;28;20033;-70
2022/07/21 06:24:22;;;;;;;1999.90;999.90;;;;;;;;;;5034001;28;20029;-70
2022/07/21 06:26:47;;;;;;;1999.90;999.90;;;;;;;;;;5033920;28;20026;-70
2022/07/21 06:29:13;;;;;;;1999.90;999.90;;;;;;;;;;5033989;28;20457;-70
2022/07/21 06:31:38;;;;;;;1999.90;999.90;;;;;;;;;;5033792;28;20475;-70
2022/07/21 06:34:04;;;;;;;1999.90;999.90;;;;;;;;;;5033915;28;20021;-69
2022/07/21 06:36:29;;;;;;;1999.90;999.90;;;;;;;;;;5034064;28;20029;-70
2022/07/21 06:38:54;;;;;;;1999.90;999.90;;;;;;;;;;5033700;28;20025;-69
2022/07/21 06:41:19;;;;;;;1999.90;999.90;;;;;;;;;;5034327;28;20049;-69
2022/07/21 06:43:45;;;;;;;1999.90;999.90;;;;;;;;;;5033610;28;20056;-70
2022/07/21 06:46:10;;;;;;;1999.90;999.90;;;;;;;;;;5033767;28;20087;-70
2022/07/21 06:48:35;;;;;;;1999.90;999.90;;;;;;;;;;5033402;28;20030;-70
2022/07/21 06:51:01;;;;;;;1999.90;999.90;;;;;;;;;;5033241;28;20033;-70
2022/07/21 06:53:26;;;;;;;1999.90;999.90;;;;;;;;;;5033811;28;20038;-71
2022/07/21 06:55:52;;;;;;;1999.90;999.90;;;;;;;;;;5033623;28;20022;-70
2022/07/21 06:58:18;;;;;;;1999.90;999.90;;;;;;;;;;5033911;28;20037;-70
2022/07/21 07:00:45;;;;;;;1999.90;999.90;;;;;;;;;;5031813;28;20021;-70
2022/07/21 07:03:11;;;;;;;1999.90;999.90;;;;;;;;;;5033854;28;20056;-70
2022/07/21 07:05:36;;;;;;;1999.90;999.90;;;;;;;;;;5033533;28;20495;-70
2022/07/21 07:08:02;;;;;;;1999.90;999.90;;;;;;;;;;5032936;28;20025;-70
2022/07/21 07:10:27;;;;;;;1999.90;999.90;;;;;;;;;;5032974;28;20079;-70
2022/07/21 07:12:52;;;;;;;1999.90;999.90;;;;;;;;;;5033394;28;20036;-70
2022/07/21 07:15:18;;;;;;;1999.90;999.90;;;;;;;;;;5033557;28;20382;-70
2022/07/21 07:17:43;;;;;;;1999.90;999.90;;;;;;;;;;5032325;28;20018;-70
2022/07/21 07:20:08;;;;;;;1515.72;754.00;;;;;;;;;;5032799;28;20473;-69
2022/07/21 07:22:34;;;;;;;1999.90;999.90;;;;;;;;;;5033323;28;20025;-69
2022/07/21 07:24:59;;;;;;;1080.32;526.63;;;;;;;;;;5032256;28;20033;-70
2022/07/21 07:27:25;;;;;;;507.38;128.02;;;;;;;;;;5032829;28;20025;-70
2022/07/21 07:29:50;;;;;;;17.35;15.90;;;;;;;;;;5033164;28;20028;-71
2022/07/21 07:32:16;;;;;;;5.97;3.95;;;;;;;;;;5032774;28;20030;-70
2022/07/21 07:34:41;;;;;;;13.82;12.05;;;;;;;;;;5032883;28;20532;-70
2022/07/21 07:37:06;;;;;;;5.07;2.85;;;;;;;;;;5033147;28;20040;-70
2022/07/21 07:39:32;;;;;;;1999.90;999.90;;;;;;;;;;5032818;28;20120;-71
2022/07/21 07:41:57;;;;;;;1999.90;999.90;;;;;;;;;;5033175;28;20081;-71
2022/07/21 07:44:22;;;;;;;1999.90;999.90;;;;;;;;;;5033096;28;20017;-71
2022/07/21 07:46:48;;;;;;;1999.90;999.90;;;;;;;;;;5032960;28;20044;-70
2022/07/21 07:49:14;;;;;;;1999.90;999.90;;;;;;;;;;5032827;28;20057;-71
2022/07/21 07:51:39;;;;;;;1999.90;999.90;;;;;;;;;;5033090;28;20112;-70
2022/07/21 07:54:04;;;;;;;1999.90;999.90;;;;;;;;;;5032714;28;20036;-71
2022/07/21 07:56:30;;;;;;;1999.90;999.90;;;;;;;;;;5031900;28;20040;-71
2022/07/21 07:58:56;;;;;;;1999.90;999.90;;;;;;;;;;5032217;28;20032;-71
2022/07/21 08:01:21;;;;;;;1999.90;999.90;;;;;;;;;;5032875;28;20461;-71
2022/07/21 08:03:46;;;;;;;1999.90;999.90;;;;;;;;;;5032833;28;20027;-71
2022/07/21 08:06:12;;;;;;;62.33;58.63;;;;;;;;;;5032109;28;20068;-71
2022/07/21 08:08:38;;;;;;;4.63;1.13;;;;;;;;;;5033017;28;20025;-71
2022/07/21 08:11:03;;;;;;;1999.90;999.90;;;;;;;;;;5017453;28;21500;-71
2022/07/21 08:13:29;;;;;;;1999.90;999.90;;;;;;;;;;5027434;28;20087;-72
2022/07/21 08:15:54;;;;;;;1999.90;999.90;;;;;;;;;;5028602;28;20022;-71
2022/07/21 08:18:20;;;;;;;1999.90;999.90;;;;;;;;;;5030009;28;20025;-71
2022/07/21 08:20:46;;;;;;;1999.90;999.90;;;;;;;;;;5026588;28;20033;-71
2022/07/21 08:23:12;;;;;;;1999.90;999.90;;;;;;;;;;5029972;28;20025;-72
2022/07/21 08:25:37;;;;;;;1999.90;999.90;;;;;;;;;;5029021;28;20033;-72
2022/07/21 08:28:03;;;;;;;424.25;107.75;;;;;;;;;;5029154;28;20443;-72
2022/07/21 08:30:28;;;;;;;1999.90;999.90;;;;;;;;;;5029502;28;20437;-71
2022/07/21 08:32:55;;;;;;;48.53;41.88;;;;;;;;;;5030047;28;20371;-71
2022/07/21 08:35:20;;;;;;;79.72;64.82;;;;;;;;;;5027880;28;20508;-71
2022/07/21 08:37:53;;;;;;;1999.90;999.90;;;;;;;;;;5033689;28;20022;-71
2022/07/21 08:40:19;;;;;;;1999.90;999.90;;;;;;;;;;5035103;28;20061;-71
2022/07/21 08:42:46;;;;;;;1999.90;999.90;;;;;;;;;;5035681;28;20064;-72
2022/07/21 08:45:11;;;;;;;1999.90;999.90;;;;;;;;;;5033920;28;20477;-71
2022/07/21 08:47:36;;;;;;;1999.90;999.90;;;;;;;;;;5036155;28;20116;-71
2022/07/21 08:50:02;;;;;;;1999.90;999.90;;;;;;;;;;5036211;28;20037;-72
2022/07/21 08:52:27;;;;;;;1999.90;999.90;;;;;;;;;;5035512;28;20021;-71
2022/07/21 08:54:55;;;;;;;1999.90;999.90;;;;;;;;;;5036033;28;20372;-71
2022/07/21 08:57:21;;;;;;;1999.90;999.90;;;;;;;;;;5036124;28;20037;-71
2022/07/21 08:59:46;;;;;;;1999.90;999.90;;;;;;;;;;5036003;28;20377;-72
2022/07/21 09:02:25;;;;;;;1999.90;999.90;;;;;;;;;;5036022;28;20076;-71
2022/07/21 09:04:52;;;;;;;1999.90;999.90;;;;;;;;;;5035777;28;20045;-72
2022/07/21 09:07:18;;;;;;;1999.90;999.90;;;;;;;;;;5035878;28;20036;-72
2022/07/21 09:09:53;;;;;;;1999.90;999.90;;;;;;;;;;5035811;28;20021;-71
2022/07/21 09:12:18;;;;;;;98.22;91.60;;;;;;;;;;5034224;28;20441;-71
2022/07/21 09:14:44;;;;;;;1999.90;999.90;;;;;;;;;;5031427;28;20116;-72
2022/07/21 09:17:09;;;;;;;1999.90;999.90;;;;;;;;;;5034593;28;20021;-71
2022/07/21 09:19:38;;;;;;;1999.90;999.90;;;;;;;;;;5034623;28;20752;-71
2022/07/21 09:22:04;;;;;;;1999.90;999.90;;;;;;;;;;5035287;28;20033;-71
2022/07/21 09:24:43;;;;;;;1999.90;999.90;;;;;;;;;;5035479;28;20021;-71
2022/07/21 09:27:10;;;;;;;1999.90;999.90;;;;;;;;;;5035519;28;20030;-71
2022/07/21 09:29:46;;;;;;;1999.90;999.90;;;;;;;;;;5035740;28;20079;-71
2022/07/21 09:32:31;;;;;;;1999.90;999.90;;;;;;;;;;5035448;28;20374;-71
2022/07/21 09:35:01;;;;;;;1999.90;999.90;;;;;;;;;;5034144;28;20061;-71
2022/07/21 09:37:27;;;;;;;1999.90;999.90;;;;;;;;;;5017347;28;20131;-72
2022/07/21 09:39:53;;;;;;;1999.90;999.90;;;;;;;;;;5026498;28;20489;-71
2022/07/21 09:42:19;;;;;;;1999.90;999.90;;;;;;;;;;5031239;28;20140;-71
2022/07/21 09:44:46;;;;;;;1999.90;999.90;;;;;;;;;;5030439;28;20037;-71
2022/07/21 09:47:13;;;;;;;1999.90;999.90;;;;;;;;;;5029939;28;20117;-71
2022/07/21 09:49:39;;;;;;;1999.90;999.90;;;;;;;;;;5030869;28;20025;-72
2022/07/21 09:52:25;;;;;;;1999.90;999.90;;;;;;;;;;5030290;28;20034;-71
2022/07/21 09:54:51;;;;;;;1999.90;999.90;;;;;;;;;;5030151;28;20041;-72
2022/07/21 09:57:17;;;;;;;1999.90;999.90;;;;;;;;;;5031319;28;20099;-72
2022/07/21 09:59:43;;;;;;;1999.90;999.90;;;;;;;;;;5030612;28;20477;-71
2022/07/21 10:02:14;;;;;;;1999.90;999.90;;;;;;;;;;5027725;28;20025;-72
2022/07/21 10:04:40;;;;;;;1999.90;999.90;;;;;;;;;;5031694;28;20461;-71
2022/07/21 10:07:05;;;;;;;1999.90;999.90;;;;;;;;;;5029865;28;20040;-71
2022/07/21 10:09:31;;;;;;;1999.90;999.90;;;;;;;;;;5032340;28;20025;-72
2022/07/21 10:11:56;;;;;;;160.20;56.75;;;;;;;;;;5033528;28;20419;-71
2022/07/21 10:14:21;;;;;;;10.02;9.02;;;;;;;;;;5033155;28;20067;-72
2022/07/21 10:16:47;;;;;;;142.85;45.72;;;;;;;;;;5032504;28;20416;-72
2022/07/21 10:19:19;;;;;;;1019.67;517.95;;;;;;;;;;5032839;28;20029;-72
2022/07/21 10:21:59;;;;;;;1999.90;999.90;;;;;;;;;;5032630;28;20041;-72
2022/07/21 10:24:27;;;;;;;146.23;10.73;;;;;;;;;;5029268;28;20033;-72
2022/07/21 10:27:03;;;;;;;1.80;0.77;;;;;;;;;;5033005;28;20460;-72
2022/07/21 10:29:47;;;;;;;2.13;0.70;;;;;;;;;;5033025;28;20385;-72
2022/07/21 10:32:13;;;;;;;3.40;0.70;;;;;;;;;;5028764;28;20022;-71
2022/07/21 10:34:39;;;;;;;2.13;0.75;;;;;;;;;;5024000;28;20037;-72
2022/07/21 10:37:04;;;;;;;2.13;0.70;;;;;;;;;;5026824;28;20036;-71
2022/07/21 10:39:31;;;;;;;1.38;1.05;;;;;;;;;;5026231;28;20714;-72
2022/07/21 10:41:58;;;;;;;3.78;1.42;;;;;;;;;;5033319;28;20087;-71
2022/07/21 10:44:26;;;;;;;1999.90;999.90;;;;;;;;;;5033531;28;20037;-72
2022/07/21 10:47:05;;;;;;;1999.90;999.90;;;;;;;;;;5033486;28;20045;-72
2022/07/21 10:49:45;;;;;;;1999.90;999.90;;;;;;;;;;5031326;28;20148;-72
2022/07/21 10:52:29;;;;;;;1999.90;999.90;;;;;;;;;;5033650;28;20040;-72
2022/07/21 10:55:09;;;;;;;1999.90;999.90;;;;;;;;;;5029255;28;20104;-71
2022/07/21 10:57:35;;;;;;;37.90;10.32;;;;;;;;;;5033803;28;20377;-71
2022/07/21 11:00:19;;;;;;;3.28;0.93;;;;;;;;;;5033097;28;20029;-71
2022/07/21 11:02:58;;;;;;;70.60;17.45;;;;;;;;;;5032849;28;20071;-71
2022/07/21 11:05:25;;;;;;;7.50;1.17;;;;;;;;;;5033726;28;20046;-72
2022/07/21 11:08:10;;;;;;;49.55;27.40;;;;;;;;;;5033187;28;20103;-72
2022/07/21 11:10:36;;;;;;;5.60;1.35;;;;;;;;;;5033455;28;20029;-72
2022/07/21 11:13:01;;;;;;;5.70;1.23;;;;;;;;;;5033197;28;20033;-71
2022/07/21 11:15:52;;;;;;;7.63;1.40;;;;;;;;;;5032157;28;20031;-71
2022/07/21 11:18:18;;;;;;;1.92;0.90;;;;;;;;;;5031046;28;20053;-71
2022/07/21 11:20:57;;;;;;;2.05;1.20;;;;;;;;;;5030092;28;20040;-71
2022/07/21 11:23:33;;;;;;;5.07;1.30;;;;;;;;;;5033169;28;20033;-71
2022/07/21 11:25:58;;;;;;;6.88;1.05;;;;;;;;;;5032330;28;20116;-71
2022/07/21 11:28:24;;;;;;;7.20;1.48;;;;;;;;;;5033124;28;20440;-71
2022/07/21 11:31:04;;;;;;;1.88;1.00;;;;;;;;;;5032407;28;20040;-71
2022/07/21 11:33:30;;;;;;;55.10;5.88;;;;;;;;;;5022771;28;20029;-71
2022/07/21 11:35:55;;;;;;;57.72;54.22;;;;;;;;;;5031710;28;20512;-71
2022/07/21 11:38:20;;;;;;;9.93;9.20;;;;;;;;;;5033043;28;20025;-71
2022/07/21 11:40:45;;;;;;;2.05;0.65;;;;;;;;;;5031418;28;20092;-71
2022/07/21 11:43:11;;;;;;;1.63;0.57;;;;;;;;;;5032568;28;20107;-71
2022/07/21 11:45:36;;;;;;;0.77;0.63;;;;;;;;;;5029921;28;20037;-71
2022/07/21 11:48:03;;;;;;;2.35;0.95;;;;;;;;;;5022955;28;20052;-72
2022/07/21 11:50:30;;;;;;;1.80;0.52;;;;;;;;;;5030197;28;20033;-72
2022/07/21 11:52:56;;;;;;;2.38;0.85;;;;;;;;;;5028763;28;20018;-72
2022/07/21 11:55:21;;;;;;;4.55;1.33;;;;;;;;;;5032422;28;20041;-71
2022/07/21 11:57:46;;;;;;;7.43;1.10;;;;;;;;;;5032693;28;20025;-71
2022/07/21 12:00:13;;;;;;;123.22;10.30;;;;;;;;;;5032647;28;20364;-71
2022/07/21 12:02:38;;;;;;;1.40;0.75;;;;;;;;;;5032350;28;20025;-71
2022/07/21 12:05:04;;;;;;;0.65;0.55;;;;;;;;;;5032405;28;20117;-71
2022/07/21 12:07:38;;;;;;;0.98;0.70;;;;;;;;;;5032905;28;20025;-72
2022/07/21 12:10:05;;;;;;;0.85;0.68;;;;;;;;;;5033008;28;20096;-71
2022/07/21 12:12:36;;;;;;;3.60;1.13;;;;;;;;;;5033515;28;20041;-71
2022/07/21 12:15:10;;;;;;;0.60;0.55;;;;;;;;;;5029237;28;20021;-71
2022/07/21 12:17:37;;;;;;;1.85;0.90;;;;;;;;;;5036836;28;20041;-71
2022/07/21 12:20:04;;;;;;;1.20;0.82;;;;;;;;;;5036724;28;20084;-71
2022/07/21 12:22:47;;;;;;;1.98;1.27;;;;;;;;;;5036816;28;20378;-72
2022/07/21 12:25:12;;;;;;;;;;;;;;;;;;5036961;28;20086;-71
2022/07/21 12:27:39;;;;;;;1.73;0.97;;;;;;;;;;5036306;28;20587;-71
2022/07/21 12:30:05;;;;;;;4.97;0.85;;;;;;;;;;5036639;28;20319;-71
2022/07/21 12:32:38;;;;;;;2.58;0.82;;;;;;;;;;5036396;28;20029;-72
2022/07/21 12:35:04;;;;;;;0.52;0.52;;;;;;;;;;5036547;28;20515;-71
2022/07/21 12:37:48;;;;;;;1.95;0.95;;;;;;;;;;5036559;28;20029;-72
2022/07/21 12:40:13;;;;;;;3.03;1.23;;;;;;;;;;5036062;28;20046;-71
2022/07/21 12:42:38;;;;;;;1.48;1.10;;;;;;;;;;5036186;28;20040;-72
2022/07/21 12:45:14;;;;;;;1.92;1.00;;;;;;;;;;5034647;28;20033;-71
2022/07/21 12:47:39;;;;;;;1999.90;999.90;;;;;;;;;;5035785;28;20057;-71
2022/07/21 12:50:07;;;;;;;1999.90;999.90;;;;;;;;;;5035536;28;20054;-71
2022/07/21 12:52:37;;;;;;;1999.90;999.90;;;;;;;;;;5035248;28;20025;-71
2022/07/21 12:55:02;;;;;;;1999.90;999.90;;;;;;;;;;5032680;28;20026;-71
2022/07/21 12:57:28;;;;;;;1999.90;999.90;;;;;;;;;;5035709;28;20029;-71
2022/07/21 12:59:54;;;;;;;1999.90;999.90;;;;;;;;;;5034720;28;20101;-71
2022/07/21 13:02:20;;;;;;;1999.90;999.90;;;;;;;;;;5034390;28;20125;-71
2022/07/21 13:04:45;;;;;;;1999.90;999.90;;;;;;;;;;5035410;28;20056;-72
2022/07/21 13:07:10;;;;;;;1999.90;999.90;;;;;;;;;;5035658;28;20069;-71
2022/07/21 13:09:36;;;;;;;1999.90;999.90;;;;;;;;;;5026862;28;20029;-71
2022/07/21 13:12:01;;;;;;;1999.90;999.90;;;;;;;;;;5033073;28;20038;-71
2022/07/21 13:14:26;;;;;;;1999.90;999.90;;;;;;;;;;5019111;28;20060;-71
2022/07/21 13:16:52;;;;;;;1999.90;999.90;;;;;;;;;;5021989;28;20053;-71
2022/07/21 13:19:17;;;;;;;1999.90;999.90;;;;;;;;;;5030998;28;20116;-71
2022/07/21 13:21:43;;;;;;;1999.90;999.90;;;;;;;;;;5031075;28;20465;-71
2022/07/21 13:24:08;;;;;;;1999.90;999.90;;;;;;;;;;5031572;28;20056;-71
2022/07/21 13:26:33;;;;;;;1999.90;999.90;;;;;;;;;;5031436;28;20128;-71
2022/07/21 13:29:00;;;;;;;1999.90;999.90;;;;;;;;;;5031408;28;20372;-71
2022/07/21 13:31:26;;;;;;;1999.90;999.90;;;;;;;;;;5031148;28;20032;-71
2022/07/21 13:33:52;;;;;;;1999.90;999.90;;;;;;;;;;5021438;28;20083;-71
2022/07/21 13:36:17;;;;;;;1999.90;999.90;;;;;;;;;;5031417;28;20021;-71
2022/07/21 13:38:42;;;;;;;1999.90;999.90;;;;;;;;;;5034089;28;20036;-71
2022/07/21 13:41:08;;;;;;;1999.90;999.90;;;;;;;;;;5033074;28;20042;-71
2022/07/21 13:43:35;;;;;;;1999.90;999.90;;;;;;;;;;5034183;28;20009;-71
2022/07/21 13:46:00;;;;;;;1999.90;999.90;;;;;;;;;;5034084;28;20073;-71
2022/07/21 13:48:25;;;;;;;1999.90;999.90;;;;;;;;;;5034035;28;20111;-71
2022/07/21 13:50:51;;;;;;;1999.90;999.90;;;;;;;;;;5033357;28;20076;-71
2022/07/21 13:53:16;;;;;;;1999.90;999.90;;;;;;;;;;5033339;28;20040;-71
2022/07/21 13:55:41;;;;;;;1999.90;999.90;;;;;;;;;;5033738;28;20080;-71
2022/07/21 13:58:08;;;;;;;1999.90;999.90;;;;;;;;;;5033994;28;20473;-71
2022/07/21 14:00:33;;;;;;;1999.90;999.90;;;;;;;;;;5033203;28;20025;-71
2022/07/21 14:02:58;;;;;;;1999.90;999.90;;;;;;;;;;5034705;28;20473;-71
2022/07/21 14:05:24;;;;;;;1999.90;999.90;;;;;;;;;;5034569;28;20384;-71
2022/07/21 14:07:49;;;;;;;1999.90;999.90;;;;;;;;;;5034767;28;20033;-71